Flugwetter

METAR EDDW
2021/09/25 03:50 EDDW 250350Z 23007KT 9999 BKN015 16/14 Q1013 BECMG BKN010
TAF EDDW
2021/09/24 18:27 TAF EDDW 241700Z 2418/2518 24008KT 9999 SCT015 BKN030 BECMG 2422/2424 BKN012 TEMPO 2503/2511 4500 -DZRA BKN007 PROB30 TEMPO 2504/2510 2000 DZ BKN004 BECMG 2510/2513 BKN015 BECMG 2516/2518 VRB03KT
METAR EDDH
2021/09/25 03:50 EDDH 250350Z 24008KT 6000 -RADZ BKN006 16/15 Q1012 TEMPO 4000
TAF EDDH
2021/09/24 18:27 TAF EDDH 241700Z 2418/2524 24008KT 9999 SCT015 BKN030 BECMG 2422/2424 BKN012 TEMPO 2423/2509 4500 -DZRA BKN007 PROB30 TEMPO 2504/2508 2000 DZ BKN004 BECMG 2509/2511 BKN015 BECMG 2514/2517 VRB03KT BECMG 2520/2523 2000 BCFG TEMPO 2522/2524 0700 FG
METAR VRMM
2021/09/24 04:00 VRMM 240400Z 32011KT 9999 FEW018TCU 30/25 Q1010 NOSIG
TAF VRMM
2021/09/23 18:27 TAF VRMM 231700Z 2318/2424 31015KT 9999 SCT018TCU TEMPO 2318/2324 5000 SHRA FEW017CB

Quelle:

Bereitgestellt von den Servern der NOAA tgftp.nws.noaa.gov
Alle Angaben ohne Gewähr